sensor_id;sensor_type;location;lat;lon;timestamp;pressure;altitude;pressure_sealevel;temperature;humidity
6090;BME280;3073;42.660;23.316;2023-04-28T00:00:32;94722.25;;;14.61;38.44
6090;BME280;3073;42.660;23.316;2023-04-28T00:03:14;94721.00;;;15.14;37.52
6090;BME280;3073;42.660;23.316;2023-04-28T00:05:41;94711.66;;;15.79;37.16
6090;BME280;3073;42.660;23.316;2023-04-28T00:08:08;94718.69;;;15.13;37.87
6090;BME280;3073;42.660;23.316;2023-04-28T00:10:34;94715.97;;;14.22;38.79
6090;BME280;3073;42.660;23.316;2023-04-28T00:13:01;94724.44;;;16.53;36.16
6090;BME280;3073;42.660;23.316;2023-04-28T00:15:28;94718.06;;;15.81;36.70
6090;BME280;3073;42.660;23.316;2023-04-28T00:17:57;94722.75;;;15.59;37.37
6090;BME280;3073;42.660;23.316;2023-04-28T00:20:23;94727.41;;;15.22;37.58
6090;BME280;3073;42.660;23.316;2023-04-28T00:22:50;94721.25;;;15.13;37.76
6090;BME280;3073;42.660;23.316;2023-04-28T00:25:17;94715.84;;;16.19;36.47
6090;BME280;3073;42.660;23.316;2023-04-28T00:27:44;94726.88;;;15.45;37.37
6090;BME280;3073;42.660;23.316;2023-04-28T00:30:11;94715.09;;;14.83;38.14
6090;BME280;3073;42.660;23.316;2023-04-28T00:32:38;94714.06;;;15.00;38.11
6090;BME280;3073;42.660;23.316;2023-04-28T00:35:07;94728.63;;;15.80;37.24
6090;BME280;3073;42.660;23.316;2023-04-28T00:37:35;94720.78;;;16.98;35.60
6090;BME280;3073;42.660;23.316;2023-04-28T00:40:02;94729.75;;;16.72;35.91
6090;BME280;3073;42.660;23.316;2023-04-28T00:42:29;94735.00;;;15.92;36.70
6090;BME280;3073;42.660;23.316;2023-04-28T00:44:56;94732.78;;;15.45;37.23
6090;BME280;3073;42.660;23.316;2023-04-28T00:47:23;94731.25;;;15.60;36.86
6090;BME280;3073;42.660;23.316;2023-04-28T00:49:50;94733.75;;;15.85;37.06
6090;BME280;3073;42.660;23.316;2023-04-28T00:52:18;94733.84;;;15.09;37.73
6090;BME280;3073;42.660;23.316;2023-04-28T00:54:45;94733.56;;;15.61;37.07
6090;BME280;3073;42.660;23.316;2023-04-28T00:57:13;94730.00;;;16.26;36.66
6090;BME280;3073;42.660;23.316;2023-04-28T00:59:39;94741.78;;;15.63;37.34
6090;BME280;3073;42.660;23.316;2023-04-28T01:02:07;94738.19;;;15.39;37.56
6090;BME280;3073;42.660;23.316;2023-04-28T01:04:34;94732.94;;;14.23;39.18
6090;BME280;3073;42.660;23.316;2023-04-28T01:07:02;94739.97;;;14.48;39.11
6090;BME280;3073;42.660;23.316;2023-04-28T01:09:30;94740.28;;;15.12;38.22
6090;BME280;3073;42.660;23.316;2023-04-28T01:11:57;94741.31;;;15.06;38.33
6090;BME280;3073;42.660;23.316;2023-04-28T01:14:24;94746.72;;;15.14;38.06
6090;BME280;3073;42.660;23.316;2023-04-28T01:16:52;94750.00;;;15.70;36.73
6090;BME280;3073;42.660;23.316;2023-04-28T01:19:20;94753.63;;;14.88;38.22
6090;BME280;3073;42.660;23.316;2023-04-28T01:21:48;94743.34;;;15.34;37.54
6090;BME280;3073;42.660;23.316;2023-04-28T01:24:16;94741.16;;;14.30;38.72
6090;BME280;3073;42.660;23.316;2023-04-28T01:26:43;94743.59;;;13.94;38.86
6090;BME280;3073;42.660;23.316;2023-04-28T01:29:10;94746.94;;;14.67;38.20
6090;BME280;3073;42.660;23.316;2023-04-28T01:31:37;94736.38;;;14.43;38.22
6090;BME280;3073;42.660;23.316;2023-04-28T01:34:04;94747.47;;;14.74;37.92
6090;BME280;3073;42.660;23.316;2023-04-28T01:36:31;94753.63;;;15.29;37.05
6090;BME280;3073;42.660;23.316;2023-04-28T01:38:58;94744.63;;;13.99;38.88
6090;BME280;3073;42.660;23.316;2023-04-28T01:41:26;94748.50;;;14.93;37.77
6090;BME280;3073;42.660;23.316;2023-04-28T01:43:53;94751.06;;;15.19;37.27
6090;BME280;3073;42.660;23.316;2023-04-28T01:46:20;94745.91;;;15.64;36.31
6090;BME280;3073;42.660;23.316;2023-04-28T01:48:47;94742.75;;;14.41;38.04
6090;BME280;3073;42.660;23.316;2023-04-28T01:51:14;94745.63;;;14.50;38.27
6090;BME280;3073;42.660;23.316;2023-04-28T01:53:41;94745.56;;;14.34;38.54
6090;BME280;3073;42.660;23.316;2023-04-28T01:56:07;94750.56;;;14.86;37.65
6090;BME280;3073;42.660;23.316;2023-04-28T01:58:36;94735.03;;;14.31;38.27
6090;BME280;3073;42.660;23.316;2023-04-28T02:01:03;94743.31;;;14.58;37.95
6090;BME280;3073;42.660;23.316;2023-04-28T02:03:29;94749.72;;;15.87;36.28
6090;BME280;3073;42.660;23.316;2023-04-28T02:05:57;94746.38;;;15.76;36.62
6090;BME280;3073;42.660;23.316;2023-04-28T02:08:24;94753.13;;;15.52;36.67
6090;BME280;3073;42.660;23.316;2023-04-28T02:10:51;94744.38;;;15.53;36.70
6090;BME280;3073;42.660;23.316;2023-04-28T02:13:18;94751.84;;;15.29;36.78
6090;BME280;3073;42.660;23.316;2023-04-28T02:15:46;94758.50;;;15.45;37.02
6090;BME280;3073;42.660;23.316;2023-04-28T02:18:12;94757.22;;;14.67;38.17
6090;BME280;3073;42.660;23.316;2023-04-28T02:20:40;94763.13;;;15.74;36.81
6090;BME280;3073;42.660;23.316;2023-04-28T02:23:09;94757.22;;;14.67;37.90
6090;BME280;3073;42.660;23.316;2023-04-28T02:25:36;94762.88;;;15.65;36.59
6090;BME280;3073;42.660;23.316;2023-04-28T02:28:05;94758.22;;;14.66;37.87
6090;BME280;3073;42.660;23.316;2023-04-28T02:30:38;94770.28;;;15.97;36.50
6090;BME280;3073;42.660;23.316;2023-04-28T02:33:09;94765.19;;;14.71;37.71
6090;BME280;3073;42.660;23.316;2023-04-28T02:35:36;94764.19;;;14.10;39.23
6090;BME280;3073;42.660;23.316;2023-04-28T02:38:03;94764.69;;;15.29;37.51
6090;BME280;3073;42.660;23.316;2023-04-28T02:40:30;94769.88;;;14.22;38.14
6090;BME280;3073;42.660;23.316;2023-04-28T02:42:57;94768.69;;;13.40;39.65
6090;BME280;3073;42.660;23.316;2023-04-28T02:45:24;94771.75;;;13.79;39.56
6090;BME280;3073;42.660;23.316;2023-04-28T02:47:51;94771.56;;;13.49;39.48
6090;BME280;3073;42.660;23.316;2023-04-28T02:50:19;94782.13;;;14.72;38.35
6090;BME280;3073;42.660;23.316;2023-04-28T02:52:46;94770.28;;;14.56;38.24
6090;BME280;3073;42.660;23.316;2023-04-28T02:55:13;94780.16;;;14.22;38.54
6090;BME280;3073;42.660;23.316;2023-04-28T02:57:48;94774.03;;;14.33;38.79
6090;BME280;3073;42.660;23.316;2023-04-28T03:00:15;94781.19;;;14.21;38.83
6090;BME280;3073;42.660;23.316;2023-04-28T03:02:41;94786.06;;;13.70;39.71
6090;BME280;3073;42.660;23.316;2023-04-28T03:05:08;94785.47;;;14.82;38.04
6090;BME280;3073;42.660;23.316;2023-04-28T03:07:37;94781.72;;;13.76;39.64
6090;BME280;3073;42.660;23.316;2023-04-28T03:10:05;94784.44;;;14.06;39.38
6090;BME280;3073;42.660;23.316;2023-04-28T03:12:32;94778.28;;;14.64;38.27
6090;BME280;3073;42.660;23.316;2023-04-28T03:14:59;94786.44;;;14.46;38.01
6090;BME280;3073;42.660;23.316;2023-04-28T03:17:26;94775.25;;;14.15;38.21
6090;BME280;3073;42.660;23.316;2023-04-28T03:19:53;94786.88;;;14.33;38.07
6090;BME280;3073;42.660;23.316;2023-04-28T03:22:20;94786.59;;;14.29;38.10
6090;BME280;3073;42.660;23.316;2023-04-28T03:24:48;94795.59;;;14.32;38.16
6090;BME280;3073;42.660;23.316;2023-04-28T03:27:15;94802.38;;;14.53;37.87
6090;BME280;3073;42.660;23.316;2023-04-28T03:29:42;94811.22;;;15.13;37.02
6090;BME280;3073;42.660;23.316;2023-04-28T03:32:09;94805.91;;;14.42;38.12
6090;BME280;3073;42.660;23.316;2023-04-28T03:34:36;94816.25;;;14.05;38.60
6090;BME280;3073;42.660;23.316;2023-04-28T03:37:03;94818.38;;;14.90;37.21
6090;BME280;3073;42.660;23.316;2023-04-28T03:39:30;94823.19;;;14.57;37.36
6090;BME280;3073;42.660;23.316;2023-04-28T03:41:58;94833.09;;;15.20;36.95
6090;BME280;3073;42.660;23.316;2023-04-28T03:44:25;94820.44;;;14.88;37.23
6090;BME280;3073;42.660;23.316;2023-04-28T03:46:52;94827.59;;;14.76;37.54
6090;BME280;3073;42.660;23.316;2023-04-28T03:49:19;94832.63;;;14.46;37.78
6090;BME280;3073;42.660;23.316;2023-04-28T03:51:46;94829.41;;;14.81;37.46
6090;BME280;3073;42.660;23.316;2023-04-28T03:54:14;94836.31;;;14.75;37.29
6090;BME280;3073;42.660;23.316;2023-04-28T03:56:41;94837.44;;;15.35;36.77
6090;BME280;3073;42.660;23.316;2023-04-28T03:59:09;94840.84;;;14.01;37.92
6090;BME280;3073;42.660;23.316;2023-04-28T04:01:37;94847.38;;;14.71;37.44
6090;BME280;3073;42.660;23.316;2023-04-28T04:04:04;94854.91;;;15.08;36.32
6090;BME280;3073;42.660;23.316;2023-04-28T04:06:31;94858.34;;;14.56;37.67
6090;BME280;3073;42.660;23.316;2023-04-28T04:08:58;94856.91;;;14.23;38.01
6090;BME280;3073;42.660;23.316;2023-04-28T04:11:25;94859.16;;;14.67;37.28
6090;BME280;3073;42.660;23.316;2023-04-28T04:13:54;94857.78;;;15.46;36.42
6090;BME280;3073;42.660;23.316;2023-04-28T04:16:22;94859.00;;;14.99;36.76
6090;BME280;3073;42.660;23.316;2023-04-28T04:18:50;94862.34;;;15.09;36.78
6090;BME280;3073;42.660;23.316;2023-04-28T04:21:17;94860.81;;;15.18;36.48
6090;BME280;3073;42.660;23.316;2023-04-28T04:23:44;94860.63;;;15.80;35.84
6090;BME280;3073;42.660;23.316;2023-04-28T04:26:11;94863.66;;;16.18;35.04
6090;BME280;3073;42.660;23.316;2023-04-28T04:28:38;94877.72;;;16.56;34.76
6090;BME280;3073;42.660;23.316;2023-04-28T04:31:05;94871.34;;;16.33;35.16
6090;BME280;3073;42.660;23.316;2023-04-28T04:33:34;94876.56;;;15.62;35.76
6090;BME280;3073;42.660;23.316;2023-04-28T04:36:01;94875.00;;;15.41;36.14
6090;BME280;3073;42.660;23.316;2023-04-28T04:38:29;94877.34;;;15.83;35.40
6090;BME280;3073;42.660;23.316;2023-04-28T04:40:56;94878.28;;;15.06;36.29
6090;BME280;3073;42.660;23.316;2023-04-28T04:43:23;94878.91;;;14.56;37.38
6090;BME280;3073;42.660;23.316;2023-04-28T04:45:49;94882.72;;;15.46;36.27
6090;BME280;3073;42.660;23.316;2023-04-28T04:48:16;94883.78;;;16.85;34.73
6090;BME280;3073;42.660;23.316;2023-04-28T04:50:45;94884.56;;;16.85;35.01
6090;BME280;3073;42.660;23.316;2023-04-28T04:53:12;94892.56;;;16.79;34.63
6090;BME280;3073;42.660;23.316;2023-04-28T04:55:39;94894.22;;;16.44;35.14
6090;BME280;3073;42.660;23.316;2023-04-28T04:58:06;94895.06;;;15.44;35.95
6090;BME280;3073;42.660;23.316;2023-04-28T05:00:33;94903.34;;;15.51;36.20
6090;BME280;3073;42.660;23.316;2023-04-28T05:03:00;94893.94;;;15.00;37.26
6090;BME280;3073;42.660;23.316;2023-04-28T05:05:28;94912.06;;;16.06;35.75
6090;BME280;3073;42.660;23.316;2023-04-28T05:07:56;94907.97;;;15.59;35.99
6090;BME280;3073;42.660;23.316;2023-04-28T05:10:23;94904.38;;;15.60;36.12
6090;BME280;3073;42.660;23.316;2023-04-28T05:12:50;94911.56;;;14.24;38.25
6090;BME280;3073;42.660;23.316;2023-04-28T05:15:17;94902.16;;;15.02;37.17
6090;BME280;3073;42.660;23.316;2023-04-28T05:17:44;94905.81;;;15.26;36.86
6090;BME280;3073;42.660;23.316;2023-04-28T05:20:11;94912.56;;;14.60;37.64
6090;BME280;3073;42.660;23.316;2023-04-28T05:22:38;94911.31;;;14.67;37.67
6090;BME280;3073;42.660;23.316;2023-04-28T05:25:07;94915.81;;;16.69;35.54
6090;BME280;3073;42.660;23.316;2023-04-28T05:27:34;94915.63;;;16.35;36.13
6090;BME280;3073;42.660;23.316;2023-04-28T05:30:04;94915.81;;;16.69;35.48
6090;BME280;3073;42.660;23.316;2023-04-28T05:32:33;94913.44;;;16.87;34.88
6090;BME280;3073;42.660;23.316;2023-04-28T05:35:00;94910.38;;;18.02;33.82
6090;BME280;3073;42.660;23.316;2023-04-28T05:37:27;94912.69;;;19.03;32.95
6090;BME280;3073;42.660;23.316;2023-04-28T05:39:54;94907.16;;;17.86;33.93
6090;BME280;3073;42.660;23.316;2023-04-28T05:42:22;94900.84;;;19.21;32.44
6090;BME280;3073;42.660;23.316;2023-04-28T05:44:49;94902.94;;;18.53;32.47
6090;BME280;3073;42.660;23.316;2023-04-28T05:47:16;94908.75;;;19.99;31.45
6090;BME280;3073;42.660;23.316;2023-04-28T05:49:43;94909.84;;;19.80;32.03
6090;BME280;3073;42.660;23.316;2023-04-28T05:52:10;94914.44;;;19.08;32.03
6090;BME280;3073;42.660;23.316;2023-04-28T05:54:37;94908.00;;;18.63;32.37
6090;BME280;3073;42.660;23.316;2023-04-28T05:57:06;94903.31;;;18.13;33.33
6090;BME280;3073;42.660;23.316;2023-04-28T05:59:35;94906.81;;;18.27;32.65
6090;BME280;3073;42.660;23.316;2023-04-28T06:02:02;94921.84;;;19.57;31.49
6090;BME280;3073;42.660;23.316;2023-04-28T06:04:28;94921.06;;;19.38;31.18
6090;BME280;3073;42.660;23.316;2023-04-28T06:06:55;94908.66;;;17.92;32.34
6090;BME280;3073;42.660;23.316;2023-04-28T06:09:22;94911.75;;;17.12;33.06
6090;BME280;3073;42.660;23.316;2023-04-28T06:11:49;94909.09;;;18.05;32.69
6090;BME280;3073;42.660;23.316;2023-04-28T06:14:16;94909.78;;;19.10;32.05
6090;BME280;3073;42.660;23.316;2023-04-28T06:16:44;94900.53;;;17.75;33.21
6090;BME280;3073;42.660;23.316;2023-04-28T06:19:10;94908.59;;;18.55;32.59
6090;BME280;3073;42.660;23.316;2023-04-28T06:21:39;94911.59;;;19.84;31.19
6090;BME280;3073;42.660;23.316;2023-04-28T06:24:06;94916.75;;;18.67;32.45
6090;BME280;3073;42.660;23.316;2023-04-28T06:26:32;94913.50;;;20.25;30.63
6090;BME280;3073;42.660;23.316;2023-04-28T06:28:59;94917.13;;;19.59;31.22
6090;BME280;3073;42.660;23.316;2023-04-28T06:31:26;94915.44;;;19.87;30.72
6090;BME280;3073;42.660;23.316;2023-04-28T06:33:54;94910.66;;;20.40;30.16
6090;BME280;3073;42.660;23.316;2023-04-28T06:36:21;94913.28;;;20.08;30.38
6090;BME280;3073;42.660;23.316;2023-04-28T06:38:48;94906.44;;;19.47;31.75
6090;BME280;3073;42.660;23.316;2023-04-28T06:41:15;94908.69;;;21.63;29.64
6090;BME280;3073;42.660;23.316;2023-04-28T06:43:42;94910.59;;;21.71;28.82
6090;BME280;3073;42.660;23.316;2023-04-28T06:46:09;94913.19;;;22.46;28.60
6090;BME280;3073;42.660;23.316;2023-04-28T06:48:36;94901.59;;;21.91;28.55
6090;BME280;3073;42.660;23.316;2023-04-28T06:51:04;94905.94;;;21.24;29.60
6090;BME280;3073;42.660;23.316;2023-04-28T06:53:31;94902.63;;;22.82;27.91
6090;BME280;3073;42.660;23.316;2023-04-28T06:55:58;94910.06;;;22.67;27.99
6090;BME280;3073;42.660;23.316;2023-04-28T06:58:25;94897.53;;;23.51;27.34
6090;BME280;3073;42.660;23.316;2023-04-28T07:00:51;94909.78;;;23.76;27.16
6090;BME280;3073;42.660;23.316;2023-04-28T07:03:18;94902.53;;;24.25;26.71
6090;BME280;3073;42.660;23.316;2023-04-28T07:05:46;94907.78;;;23.90;26.56
6090;BME280;3073;42.660;23.316;2023-04-28T07:08:14;94899.81;;;23.52;27.23
6090;BME280;3073;42.660;23.316;2023-04-28T07:10:42;94906.75;;;21.69;29.01
6090;BME280;3073;42.660;23.316;2023-04-28T07:13:08;94898.06;;;22.18;28.68
6090;BME280;3073;42.660;23.316;2023-04-28T07:15:35;94905.34;;;21.27;29.22
6090;BME280;3073;42.660;23.316;2023-04-28T07:18:02;94902.50;;;22.48;28.52
6090;BME280;3073;42.660;23.316;2023-04-28T07:20:29;94899.50;;;23.63;26.99
6090;BME280;3073;42.660;23.316;2023-04-28T07:22:56;94899.34;;;23.42;27.02
6090;BME280;3073;42.660;23.316;2023-04-28T07:25:24;94908.28;;;23.58;26.58
6090;BME280;3073;42.660;23.316;2023-04-28T07:27:52;94897.38;;;22.34;27.92
6090;BME280;3073;42.660;23.316;2023-04-28T07:30:20;94896.97;;;21.30;28.38
6090;BME280;3073;42.660;23.316;2023-04-28T07:32:50;94891.38;;;21.58;28.62
6090;BME280;3073;42.660;23.316;2023-04-28T07:35:17;94895.72;;;23.51;27.41
6090;BME280;3073;42.660;23.316;2023-04-28T07:37:44;94891.50;;;22.51;28.27
6090;BME280;3073;42.660;23.316;2023-04-28T07:40:11;94897.63;;;24.15;26.76
6090;BME280;3073;42.660;23.316;2023-04-28T07:42:39;94898.88;;;24.55;26.35
6090;BME280;3073;42.660;23.316;2023-04-28T07:45:07;94899.28;;;25.03;25.33
6090;BME280;3073;42.660;23.316;2023-04-28T07:47:34;94896.88;;;24.14;26.15
6090;BME280;3073;42.660;23.316;2023-04-28T07:50:02;94892.88;;;23.22;26.66
6090;BME280;3073;42.660;23.316;2023-04-28T07:52:29;94895.66;;;26.11;25.40
6090;BME280;3073;42.660;23.316;2023-04-28T07:54:57;94897.56;;;24.78;25.46
6090;BME280;3073;42.660;23.316;2023-04-28T07:57:24;94890.72;;;25.98;25.13
6090;BME280;3073;42.660;23.316;2023-04-28T07:59:53;94900.72;;;26.29;24.12
6090;BME280;3073;42.660;23.316;2023-04-28T08:02:19;94886.09;;;27.25;23.43
6090;BME280;3073;42.660;23.316;2023-04-28T08:04:46;94891.38;;;26.64;23.40
6090;BME280;3073;42.660;23.316;2023-04-28T08:07:13;94897.34;;;26.28;24.09
6090;BME280;3073;42.660;23.316;2023-04-28T08:09:40;94885.94;;;27.57;22.72
6090;BME280;3073;42.660;23.316;2023-04-28T08:12:11;94889.84;;;27.91;22.99
6090;BME280;3073;42.660;23.316;2023-04-28T08:14:38;94886.28;;;27.44;22.98
6090;BME280;3073;42.660;23.316;2023-04-28T08:17:06;94894.19;;;27.32;23.24
6090;BME280;3073;42.660;23.316;2023-04-28T08:19:33;94894.06;;;26.31;23.39
6090;BME280;3073;42.660;23.316;2023-04-28T08:22:00;94892.19;;;27.96;22.77
6090;BME280;3073;42.660;23.316;2023-04-28T08:24:30;94902.47;;;28.76;22.46
6090;BME280;3073;42.660;23.316;2023-04-28T08:27:00;94899.22;;;28.98;22.20
6090;BME280;3073;42.660;23.316;2023-04-28T08:29:28;94895.88;;;30.32;21.40
6090;BME280;3073;42.660;23.316;2023-04-28T08:31:55;94891.78;;;30.57;20.96
6090;BME280;3073;42.660;23.316;2023-04-28T08:34:26;94882.06;;;30.88;19.99
6090;BME280;3073;42.660;23.316;2023-04-28T08:36:53;94891.16;;;31.17;19.84
6090;BME280;3073;42.660;23.316;2023-04-28T08:39:20;94886.00;;;28.63;21.17
6090;BME280;3073;42.660;23.316;2023-04-28T08:41:48;94888.69;;;31.01;20.35
6090;BME280;3073;42.660;23.316;2023-04-28T08:44:15;94887.44;;;30.95;19.89
6090;BME280;3073;42.660;23.316;2023-04-28T08:46:42;94882.34;;;29.73;20.57
6090;BME280;3073;42.660;23.316;2023-04-28T08:49:13;94883.81;;;30.54;20.30
6090;BME280;3073;42.660;23.316;2023-04-28T08:51:45;94881.28;;;30.38;20.78
6090;BME280;3073;42.660;23.316;2023-04-28T08:54:14;94869.00;;;32.21;20.00
6090;BME280;3073;42.660;23.316;2023-04-28T08:56:42;94874.41;;;31.02;20.15
6090;BME280;3073;42.660;23.316;2023-04-28T08:59:11;94877.41;;;31.04;19.82
6090;BME280;3073;42.660;23.316;2023-04-28T09:01:38;94875.84;;;30.50;20.25
6090;BME280;3073;42.660;23.316;2023-04-28T09:04:09;94876.03;;;31.73;19.42
6090;BME280;3073;42.660;23.316;2023-04-28T09:06:37;94874.97;;;31.48;19.77
6090;BME280;3073;42.660;23.316;2023-04-28T09:09:27;94864.19;;;30.29;19.55
6090;BME280;3073;42.660;23.316;2023-04-28T09:11:55;94869.94;;;32.02;19.58
6090;BME280;3073;42.660;23.316;2023-04-28T09:14:23;94867.75;;;32.08;19.82
6090;BME280;3073;42.660;23.316;2023-04-28T09:16:50;94856.75;;;32.02;19.24
6090;BME280;3073;42.660;23.316;2023-04-28T09:19:18;94847.44;;;31.79;19.66
6090;BME280;3073;42.660;23.316;2023-04-28T09:21:46;94860.31;;;30.00;20.91
6090;BME280;3073;42.660;23.316;2023-04-28T09:24:27;94849.84;;;30.98;19.93
6090;BME280;3073;42.660;23.316;2023-04-28T09:26:54;94853.47;;;31.16;20.33
6090;BME280;3073;42.660;23.316;2023-04-28T09:29:20;94843.59;;;31.69;19.61
6090;BME280;3073;42.660;23.316;2023-04-28T09:31:48;94842.25;;;27.77;21.79
6090;BME280;3073;42.660;23.316;2023-04-28T09:34:15;94843.28;;;28.82;21.60
6090;BME280;3073;42.660;23.316;2023-04-28T09:36:42;94842.34;;;27.96;21.82
6090;BME280;3073;42.660;23.316;2023-04-28T09:39:08;94829.53;;;29.62;20.99
6090;BME280;3073;42.660;23.316;2023-04-28T09:41:39;94830.38;;;29.47;21.15
6090;BME280;3073;42.660;23.316;2023-04-28T09:44:10;94828.69;;;29.20;21.11
6090;BME280;3073;42.660;23.316;2023-04-28T09:46:37;94829.47;;;30.23;21.20
6090;BME280;3073;42.660;23.316;2023-04-28T09:49:04;94826.28;;;30.10;21.49
6090;BME280;3073;42.660;23.316;2023-04-28T09:51:31;94826.75;;;30.39;20.48
6090;BME280;3073;42.660;23.316;2023-04-28T09:54:01;94819.25;;;30.93;20.15
6090;BME280;3073;42.660;23.316;2023-04-28T09:56:29;94820.47;;;27.61;21.98
6090;BME280;3073;42.660;23.316;2023-04-28T09:59:00;94820.38;;;29.18;20.88
6090;BME280;3073;42.660;23.316;2023-04-28T10:01:31;94800.44;;;27.84;22.10
6090;BME280;3073;42.660;23.316;2023-04-28T10:03:59;94797.66;;;27.77;21.98
6090;BME280;3073;42.660;23.316;2023-04-28T10:06:27;94807.94;;;29.53;21.20
6090;BME280;3073;42.660;23.316;2023-04-28T10:08:55;94801.34;;;29.82;21.34
6090;BME280;3073;42.660;23.316;2023-04-28T10:11:24;94804.63;;;31.29;19.63
6090;BME280;3073;42.660;23.316;2023-04-28T10:13:53;94802.75;;;30.96;19.96
6090;BME280;3073;42.660;23.316;2023-04-28T10:16:22;94802.84;;;31.70;19.55
6090;BME280;3073;42.660;23.316;2023-04-28T10:18:49;94805.88;;;33.22;18.18
6090;BME280;3073;42.660;23.316;2023-04-28T10:21:17;94794.19;;;31.06;19.79
6090;BME280;3073;42.660;23.316;2023-04-28T10:24:06;94797.69;;;29.09;20.18
6090;BME280;3073;42.660;23.316;2023-04-28T10:27:03;94790.06;;;30.79;20.13
6090;BME280;3073;42.660;23.316;2023-04-28T10:29:31;94791.88;;;31.64;19.40
6090;BME280;3073;42.660;23.316;2023-04-28T10:32:22;94792.19;;;32.47;18.36
6090;BME280;3073;42.660;23.316;2023-04-28T10:34:50;94794.34;;;32.86;18.44
6090;BME280;3073;42.660;23.316;2023-04-28T10:37:18;94782.16;;;32.67;18.76
6090;BME280;3073;42.660;23.316;2023-04-28T10:42:51;94770.94;;;31.12;19.24
6090;BME280;3073;42.660;23.316;2023-04-28T10:48:20;94767.69;;;30.17;20.55
6090;BME280;3073;42.660;23.316;2023-04-28T10:51:21;94759.84;;;31.33;19.53
6090;BME280;3073;42.660;23.316;2023-04-28T10:54:17;94752.72;;;31.37;19.10
6090;BME280;3073;42.660;23.316;2023-04-28T10:57:19;94760.63;;;32.61;18.56
6090;BME280;3073;42.660;23.316;2023-04-28T10:59:49;94759.94;;;32.75;18.70
6090;BME280;3073;42.660;23.316;2023-04-28T11:02:40;94761.91;;;31.87;18.70
6090;BME280;3073;42.660;23.316;2023-04-28T11:05:12;94749.34;;;32.72;18.43
6090;BME280;3073;42.660;23.316;2023-04-28T11:07:39;94754.09;;;33.21;18.30
6090;BME280;3073;42.660;23.316;2023-04-28T11:10:07;94750.22;;;32.35;19.02
6090;BME280;3073;42.660;23.316;2023-04-28T11:12:34;94744.78;;;33.90;17.96
6090;BME280;3073;42.660;23.316;2023-04-28T11:15:11;94742.28;;;31.84;18.32
6090;BME280;3073;42.660;23.316;2023-04-28T11:17:39;94743.53;;;29.85;20.36
6090;BME280;3073;42.660;23.316;2023-04-28T11:20:13;94734.53;;;28.01;20.48
6090;BME280;3073;42.660;23.316;2023-04-28T11:22:40;94731.19;;;29.70;19.69
6090;BME280;3073;42.660;23.316;2023-04-28T11:25:08;94734.66;;;30.46;19.54
6090;BME280;3073;42.660;23.316;2023-04-28T11:27:35;94735.63;;;29.85;19.66
6090;BME280;3073;42.660;23.316;2023-04-28T11:30:02;94723.16;;;30.57;19.56
6090;BME280;3073;42.660;23.316;2023-04-28T11:32:32;94723.00;;;30.77;18.98
6090;BME280;3073;42.660;23.316;2023-04-28T11:35:00;94727.88;;;32.91;17.98
6090;BME280;3073;42.660;23.316;2023-04-28T11:37:30;94728.41;;;32.45;17.74
6090;BME280;3073;42.660;23.316;2023-04-28T11:39:56;94715.16;;;31.91;18.26
6090;BME280;3073;42.660;23.316;2023-04-28T11:42:23;94710.13;;;30.68;18.03
6090;BME280;3073;42.660;23.316;2023-04-28T11:44:53;94708.06;;;30.02;19.12
6090;BME280;3073;42.660;23.316;2023-04-28T11:47:30;94715.69;;;30.63;18.11
6090;BME280;3073;42.660;23.316;2023-04-28T11:49:58;94714.19;;;30.92;18.48
6090;BME280;3073;42.660;23.316;2023-04-28T11:52:25;94714.53;;;31.24;18.47
6090;BME280;3073;42.660;23.316;2023-04-28T11:54:54;94709.28;;;32.70;18.04
6090;BME280;3073;42.660;23.316;2023-04-28T11:57:22;94712.78;;;32.26;17.26
6090;BME280;3073;42.660;23.316;2023-04-28T11:59:50;94709.78;;;30.43;18.11
6090;BME280;3073;42.660;23.316;2023-04-28T12:02:23;94707.75;;;31.59;17.61
6090;BME280;3073;42.660;23.316;2023-04-28T12:04:52;94710.13;;;28.67;19.35
6090;BME280;3073;42.660;23.316;2023-04-28T12:07:19;94710.41;;;28.46;20.35
6090;BME280;3073;42.660;23.316;2023-04-28T12:09:48;94702.63;;;29.91;20.08
6090;BME280;3073;42.660;23.316;2023-04-28T12:12:27;94702.53;;;30.63;20.17
6090;BME280;3073;42.660;23.316;2023-04-28T12:14:55;94698.19;;;31.07;18.81
6090;BME280;3073;42.660;23.316;2023-04-28T12:17:23;94699.13;;;32.13;18.85
6090;BME280;3073;42.660;23.316;2023-04-28T12:19:50;94687.91;;;30.13;18.83
6090;BME280;3073;42.660;23.316;2023-04-28T12:22:17;94684.31;;;31.98;18.87
6090;BME280;3073;42.660;23.316;2023-04-28T12:24:44;94675.06;;;31.71;18.97
6090;BME280;3073;42.660;23.316;2023-04-28T12:27:20;94683.38;;;33.10;18.09
6090;BME280;3073;42.660;23.316;2023-04-28T12:29:47;94678.09;;;32.28;18.38
6090;BME280;3073;42.660;23.316;2023-04-28T12:32:14;94676.56;;;32.23;18.24
6090;BME280;3073;42.660;23.316;2023-04-28T12:34:44;94677.31;;;26.73;21.88
6090;BME280;3073;42.660;23.316;2023-04-28T12:37:11;94667.72;;;27.21;21.65
6090;BME280;3073;42.660;23.316;2023-04-28T12:39:40;94670.66;;;27.78;21.47
6090;BME280;3073;42.660;23.316;2023-04-28T12:42:07;94663.84;;;26.87;21.03
6090;BME280;3073;42.660;23.316;2023-04-28T12:44:36;94667.75;;;26.65;21.63
6090;BME280;3073;42.660;23.316;2023-04-28T12:47:05;94658.03;;;27.21;21.23
6090;BME280;3073;42.660;23.316;2023-04-28T12:49:33;94661.59;;;28.42;20.95
6090;BME280;3073;42.660;23.316;2023-04-28T12:52:00;94659.56;;;29.12;20.71
6090;BME280;3073;42.660;23.316;2023-04-28T12:54:27;94660.38;;;29.35;20.20
6090;BME280;3073;42.660;23.316;2023-04-28T12:56:54;94657.66;;;28.17;20.38
6090;BME280;3073;42.660;23.316;2023-04-28T12:59:21;94652.75;;;28.69;20.87
6090;BME280;3073;42.660;23.316;2023-04-28T13:02:17;94646.09;;;27.86;20.40
6090;BME280;3073;42.660;23.316;2023-04-28T13:04:45;94643.34;;;30.90;19.35
6090;BME280;3073;42.660;23.316;2023-04-28T13:07:12;94644.78;;;32.05;19.13
6090;BME280;3073;42.660;23.316;2023-04-28T13:09:39;94629.16;;;32.55;18.60
6090;BME280;3073;42.660;23.316;2023-04-28T13:12:07;94639.72;;;31.90;18.72
6090;BME280;3073;42.660;23.316;2023-04-28T13:14:33;94626.44;;;31.28;19.58
6090;BME280;3073;42.660;23.316;2023-04-28T13:17:02;94630.94;;;28.30;20.88
6090;BME280;3073;42.660;23.316;2023-04-28T13:19:29;94612.63;;;27.17;21.49
6090;BME280;3073;42.660;23.316;2023-04-28T13:21:58;94630.78;;;29.64;20.35